sensor_id;sensor_type;location;lat;lon;timestamp;P1;P2;P0
55686;PMS5003;41911;52.362;4.978;2023-04-24T00:00:19;14.0;14.0;
55686;PMS5003;41911;52.362;4.978;2023-04-24T00:00:50;18.0;17.0;
55686;PMS5003;41911;52.362;4.978;2023-04-24T00:01:21;15.0;15.0;
55686;PMS5003;41911;52.362;4.978;2023-04-24T00:01:52;20.0;19.0;
55686;PMS5003;41911;52.362;4.978;2023-04-24T00:02:23;21.0;21.0;
55686;PMS5003;41911;52.362;4.978;2023-04-24T00:02:54;33.0;32.0;
55686;PMS5003;41911;52.362;4.978;2023-04-24T00:03:25;39.0;38.0;
55686;PMS5003;41911;52.362;4.978;2023-04-24T00:03:56;37.0;36.0;
55686;PMS5003;41911;52.362;4.978;2023-04-24T00:04:27;32.0;32.0;
55686;PMS5003;41911;52.362;4.978;2023-04-24T00:04:59;38.0;37.0;
55686;PMS5003;41911;52.362;4.978;2023-04-24T00:05:31;41.0;40.0;
55686;PMS5003;41911;52.362;4.978;2023-04-24T00:06:02;48.0;46.0;
55686;PMS5003;41911;52.362;4.978;2023-04-24T00:06:33;46.0;43.0;
55686;PMS5003;41911;52.362;4.978;2023-04-24T00:07:04;39.0;38.0;
55686;PMS5003;41911;52.362;4.978;2023-04-24T00:07:35;22.0;21.0;
55686;PMS5003;41911;52.362;4.978;2023-04-24T00:08:06;21.0;21.0;
55686;PMS5003;41911;52.362;4.978;2023-04-24T00:08:37;14.0;14.0;
55686;PMS5003;41911;52.362;4.978;2023-04-24T00:09:08;13.0;13.0;
55686;PMS5003;41911;52.362;4.978;2023-04-24T00:09:39;9.0;8.0;
55686;PMS5003;41911;52.362;4.978;2023-04-24T00:10:10;7.0;7.0;
55686;PMS5003;41911;52.362;4.978;2023-04-24T00:10:42;7.0;7.0;
55686;PMS5003;41911;52.362;4.978;2023-04-24T00:11:13;7.0;6.0;
55686;PMS5003;41911;52.362;4.978;2023-04-24T00:11:44;5.0;5.0;
55686;PMS5003;41911;52.362;4.978;2023-04-24T00:12:15;4.0;4.0;
55686;PMS5003;41911;52.362;4.978;2023-04-24T00:12:47;2.0;2.0;
55686;PMS5003;41911;52.362;4.978;2023-04-24T00:13:18;3.0;3.0;
55686;PMS5003;41911;52.362;4.978;2023-04-24T00:13:49;2.0;2.0;
55686;PMS5003;41911;52.362;4.978;2023-04-24T00:14:20;3.0;3.0;
55686;PMS5003;41911;52.362;4.978;2023-04-24T00:14:51;3.0;2.0;
55686;PMS5003;41911;52.362;4.978;2023-04-24T00:15:23;2.0;2.0;
55686;PMS5003;41911;52.362;4.978;2023-04-24T00:15:54;1.0;1.0;
55686;PMS5003;41911;52.362;4.978;2023-04-24T00:16:25;1.0;1.0;
55686;PMS5003;41911;52.362;4.978;2023-04-24T00:16:56;2.0;2.0;
55686;PMS5003;41911;52.362;4.978;2023-04-24T00:17:27;1.0;1.0;
55686;PMS5003;41911;52.362;4.978;2023-04-24T00:17:58;4.0;2.0;
55686;PMS5003;41911;52.362;4.978;2023-04-24T00:18:29;3.0;2.0;
55686;PMS5003;41911;52.362;4.978;2023-04-24T00:19:00;2.0;2.0;
55686;PMS5003;41911;52.362;4.978;2023-04-24T00:19:31;1.0;1.0;
55686;PMS5003;41911;52.362;4.978;2023-04-24T00:20:02;1.0;1.0;
55686;PMS5003;41911;52.362;4.978;2023-04-24T00:20:34;1.0;1.0;
55686;PMS5003;41911;52.362;4.978;2023-04-24T00:21:05;2.0;2.0;
55686;PMS5003;41911;52.362;4.978;2023-04-24T00:21:36;1.0;1.0;
55686;PMS5003;41911;52.362;4.978;2023-04-24T00:22:07;2.0;2.0;
55686;PMS5003;41911;52.362;4.978;2023-04-24T00:22:38;1.0;1.0;
55686;PMS5003;41911;52.362;4.978;2023-04-24T00:23:09;2.0;2.0;
55686;PMS5003;41911;52.362;4.978;2023-04-24T00:23:40;2.0;2.0;
55686;PMS5003;41911;52.362;4.978;2023-04-24T00:24:11;2.0;2.0;
55686;PMS5003;41911;52.362;4.978;2023-04-24T00:24:42;2.0;2.0;
55686;PMS5003;41911;52.362;4.978;2023-04-24T00:25:13;1.0;1.0;
55686;PMS5003;41911;52.362;4.978;2023-04-24T00:25:44;2.0;2.0;
55686;PMS5003;41911;52.362;4.978;2023-04-24T00:26:15;2.0;2.0;
55686;PMS5003;41911;52.362;4.978;2023-04-24T00:26:46;4.0;4.0;
55686;PMS5003;41911;52.362;4.978;2023-04-24T00:27:17;1.0;1.0;
55686;PMS5003;41911;52.362;4.978;2023-04-24T00:27:48;2.0;2.0;
55686;PMS5003;41911;52.362;4.978;2023-04-24T00:28:19;1.0;1.0;
55686;PMS5003;41911;52.362;4.978;2023-04-24T00:28:50;2.0;2.0;
55686;PMS5003;41911;52.362;4.978;2023-04-24T00:29:21;1.0;1.0;
55686;PMS5003;41911;52.362;4.978;2023-04-24T00:29:52;2.0;2.0;
55686;PMS5003;41911;52.362;4.978;2023-04-24T00:30:23;2.0;2.0;
55686;PMS5003;41911;52.362;4.978;2023-04-24T00:30:54;1.0;1.0;
55686;PMS5003;41911;52.362;4.978;2023-04-24T00:31:24;1.0;1.0;
55686;PMS5003;41911;52.362;4.978;2023-04-24T00:31:56;2.0;1.0;
55686;PMS5003;41911;52.362;4.978;2023-04-24T00:32:27;3.0;3.0;
55686;PMS5003;41911;52.362;4.978;2023-04-24T00:32:59;2.0;2.0;
55686;PMS5003;41911;52.362;4.978;2023-04-24T00:33:30;5.0;5.0;
55686;PMS5003;41911;52.362;4.978;2023-04-24T00:34:01;3.0;3.0;
55686;PMS5003;41911;52.362;4.978;2023-04-24T00:34:32;5.0;5.0;
55686;PMS5003;41911;52.362;4.978;2023-04-24T00:35:03;4.0;4.0;
55686;PMS5003;41911;52.362;4.978;2023-04-24T00:35:35;5.0;5.0;
55686;PMS5003;41911;52.362;4.978;2023-04-24T00:36:06;5.0;5.0;
55686;PMS5003;41911;52.362;4.978;2023-04-24T00:36:37;5.0;5.0;
55686;PMS5003;41911;52.362;4.978;2023-04-24T00:37:08;4.0;4.0;
55686;PMS5003;41911;52.362;4.978;2023-04-24T00:37:39;7.0;7.0;
55686;PMS5003;41911;52.362;4.978;2023-04-24T00:38:10;4.0;4.0;
55686;PMS5003;41911;52.362;4.978;2023-04-24T00:38:41;6.0;5.0;
55686;PMS5003;41911;52.362;4.978;2023-04-24T00:39:12;4.0;3.0;
55686;PMS5003;41911;52.362;4.978;2023-04-24T00:39:44;3.0;2.0;
55686;PMS5003;41911;52.362;4.978;2023-04-24T00:40:15;4.0;4.0;
55686;PMS5003;41911;52.362;4.978;2023-04-24T00:40:46;4.0;3.0;
55686;PMS5003;41911;52.362;4.978;2023-04-24T00:41:17;3.0;2.0;
55686;PMS5003;41911;52.362;4.978;2023-04-24T00:41:48;2.0;2.0;
55686;PMS5003;41911;52.362;4.978;2023-04-24T00:42:20;2.0;2.0;
55686;PMS5003;41911;52.362;4.978;2023-04-24T00:42:52;2.0;2.0;
55686;PMS5003;41911;52.362;4.978;2023-04-24T00:43:23;1.0;1.0;
55686;PMS5003;41911;52.362;4.978;2023-04-24T00:43:54;1.0;1.0;
55686;PMS5003;41911;52.362;4.978;2023-04-24T00:44:25;1.0;1.0;
55686;PMS5003;41911;52.362;4.978;2023-04-24T00:44:56;0.0;0.0;
55686;PMS5003;41911;52.362;4.978;2023-04-24T00:45:28;1.0;1.0;
55686;PMS5003;41911;52.362;4.978;2023-04-24T00:45:59;0.0;0.0;
55686;PMS5003;41911;52.362;4.978;2023-04-24T00:46:30;2.0;2.0;
55686;PMS5003;41911;52.362;4.978;2023-04-24T00:47:01;1.0;1.0;
55686;PMS5003;41911;52.362;4.978;2023-04-24T00:47:33;2.0;2.0;
55686;PMS5003;41911;52.362;4.978;2023-04-24T00:48:04;1.0;1.0;
55686;PMS5003;41911;52.362;4.978;2023-04-24T00:48:36;0.0;0.0;
55686;PMS5003;41911;52.362;4.978;2023-04-24T00:49:09;2.0;2.0;
55686;PMS5003;41911;52.362;4.978;2023-04-24T00:49:40;2.0;1.0;
55686;PMS5003;41911;52.362;4.978;2023-04-24T00:50:11;2.0;2.0;
55686;PMS5003;41911;52.362;4.978;2023-04-24T00:50:44;1.0;1.0;
55686;PMS5003;41911;52.362;4.978;2023-04-24T00:51:16;3.0;2.0;
55686;PMS5003;41911;52.362;4.978;2023-04-24T00:51:47;2.0;1.0;
55686;PMS5003;41911;52.362;4.978;2023-04-24T00:52:18;2.0;1.0;
55686;PMS5003;41911;52.362;4.978;2023-04-24T00:52:49;2.0;2.0;
55686;PMS5003;41911;52.362;4.978;2023-04-24T00:53:20;2.0;2.0;
55686;PMS5003;41911;52.362;4.978;2023-04-24T00:53:51;1.0;1.0;
55686;PMS5003;41911;52.362;4.978;2023-04-24T00:54:22;1.0;1.0;
55686;PMS5003;41911;52.362;4.978;2023-04-24T00:54:53;2.0;1.0;
55686;PMS5003;41911;52.362;4.978;2023-04-24T00:55:24;2.0;1.0;
55686;PMS5003;41911;52.362;4.978;2023-04-24T00:55:55;2.0;2.0;
55686;PMS5003;41911;52.362;4.978;2023-04-24T00:56:27;1.0;1.0;
55686;PMS5003;41911;52.362;4.978;2023-04-24T00:56:59;2.0;2.0;
55686;PMS5003;41911;52.362;4.978;2023-04-24T00:57:30;1.0;1.0;
55686;PMS5003;41911;52.362;4.978;2023-04-24T00:58:01;3.0;2.0;
55686;PMS5003;41911;52.362;4.978;2023-04-24T00:58:32;3.0;2.0;
55686;PMS5003;41911;52.362;4.978;2023-04-24T00:59:03;3.0;2.0;
55686;PMS5003;41911;52.362;4.978;2023-04-24T00:59:34;1.0;1.0;
55686;PMS5003;41911;52.362;4.978;2023-04-24T01:00:06;2.0;2.0;
55686;PMS5003;41911;52.362;4.978;2023-04-24T01:00:38;1.0;1.0;
55686;PMS5003;41911;52.362;4.978;2023-04-24T01:01:09;1.0;1.0;
55686;PMS5003;41911;52.362;4.978;2023-04-24T01:01:41;1.0;1.0;
55686;PMS5003;41911;52.362;4.978;2023-04-24T01:02:13;2.0;2.0;
55686;PMS5003;41911;52.362;4.978;2023-04-24T01:02:44;1.0;0.0;
55686;PMS5003;41911;52.362;4.978;2023-04-24T01:03:16;2.0;2.0;
55686;PMS5003;41911;52.362;4.978;2023-04-24T01:03:48;2.0;2.0;
55686;PMS5003;41911;52.362;4.978;2023-04-24T01:04:21;1.0;1.0;
55686;PMS5003;41911;52.362;4.978;2023-04-24T01:04:52;1.0;1.0;
55686;PMS5003;41911;52.362;4.978;2023-04-24T01:05:23;3.0;3.0;
55686;PMS5003;41911;52.362;4.978;2023-04-24T01:05:54;5.0;5.0;
55686;PMS5003;41911;52.362;4.978;2023-04-24T01:06:27;4.0;4.0;
55686;PMS5003;41911;52.362;4.978;2023-04-24T01:06:59;4.0;4.0;
55686;PMS5003;41911;52.362;4.978;2023-04-24T01:07:30;6.0;6.0;
55686;PMS5003;41911;52.362;4.978;2023-04-24T01:08:02;5.0;5.0;
55686;PMS5003;41911;52.362;4.978;2023-04-24T01:08:33;5.0;5.0;
55686;PMS5003;41911;52.362;4.978;2023-04-24T01:09:06;6.0;6.0;
55686;PMS5003;41911;52.362;4.978;2023-04-24T01:09:39;6.0;6.0;
55686;PMS5003;41911;52.362;4.978;2023-04-24T01:10:11;6.0;6.0;
55686;PMS5003;41911;52.362;4.978;2023-04-24T01:10:43;9.0;7.0;
55686;PMS5003;41911;52.362;4.978;2023-04-24T01:11:14;9.0;9.0;
55686;PMS5003;41911;52.362;4.978;2023-04-24T01:11:45;5.0;5.0;
55686;PMS5003;41911;52.362;4.978;2023-04-24T01:12:17;7.0;7.0;
55686;PMS5003;41911;52.362;4.978;2023-04-24T01:12:48;9.0;8.0;
55686;PMS5003;41911;52.362;4.978;2023-04-24T01:13:19;7.0;6.0;
55686;PMS5003;41911;52.362;4.978;2023-04-24T01:13:50;7.0;7.0;
55686;PMS5003;41911;52.362;4.978;2023-04-24T01:14:22;6.0;6.0;
55686;PMS5003;41911;52.362;4.978;2023-04-24T01:14:53;7.0;6.0;
55686;PMS5003;41911;52.362;4.978;2023-04-24T01:15:24;6.0;5.0;
55686;PMS5003;41911;52.362;4.978;2023-04-24T01:15:56;4.0;4.0;
55686;PMS5003;41911;52.362;4.978;2023-04-24T01:16:27;4.0;4.0;
55686;PMS5003;41911;52.362;4.978;2023-04-24T01:16:58;4.0;4.0;
55686;PMS5003;41911;52.362;4.978;2023-04-24T01:17:29;4.0;4.0;
55686;PMS5003;41911;52.362;4.978;2023-04-24T01:18:00;4.0;4.0;
55686;PMS5003;41911;52.362;4.978;2023-04-24T01:18:31;2.0;2.0;
55686;PMS5003;41911;52.362;4.978;2023-04-24T01:19:02;3.0;3.0;
55686;PMS5003;41911;52.362;4.978;2023-04-24T01:19:33;5.0;5.0;
55686;PMS5003;41911;52.362;4.978;2023-04-24T01:20:05;3.0;3.0;
55686;PMS5003;41911;52.362;4.978;2023-04-24T01:20:39;5.0;5.0;
55686;PMS5003;41911;52.362;4.978;2023-04-24T01:21:11;4.0;3.0;
55686;PMS5003;41911;52.362;4.978;2023-04-24T01:21:44;2.0;2.0;
55686;PMS5003;41911;52.362;4.978;2023-04-24T01:22:22;3.0;2.0;
55686;PMS5003;41911;52.362;4.978;2023-04-24T01:22:54;4.0;4.0;
55686;PMS5003;41911;52.362;4.978;2023-04-24T01:23:25;2.0;2.0;
55686;PMS5003;41911;52.362;4.978;2023-04-24T01:23:56;4.0;4.0;
55686;PMS5003;41911;52.362;4.978;2023-04-24T01:24:28;3.0;3.0;
55686;PMS5003;41911;52.362;4.978;2023-04-24T01:25:00;1.0;1.0;
55686;PMS5003;41911;52.362;4.978;2023-04-24T01:25:31;6.0;3.0;
55686;PMS5003;41911;52.362;4.978;2023-04-24T01:26:03;2.0;1.0;
55686;PMS5003;41911;52.362;4.978;2023-04-24T01:26:34;2.0;2.0;
55686;PMS5003;41911;52.362;4.978;2023-04-24T01:27:05;2.0;2.0;
55686;PMS5003;41911;52.362;4.978;2023-04-24T01:27:38;2.0;1.0;
55686;PMS5003;41911;52.362;4.978;2023-04-24T01:28:09;3.0;3.0;
55686;PMS5003;41911;52.362;4.978;2023-04-24T01:28:40;4.0;3.0;
55686;PMS5003;41911;52.362;4.978;2023-04-24T01:29:11;2.0;2.0;
55686;PMS5003;41911;52.362;4.978;2023-04-24T01:29:43;1.0;1.0;
55686;PMS5003;41911;52.362;4.978;2023-04-24T01:30:14;2.0;2.0;
55686;PMS5003;41911;52.362;4.978;2023-04-24T01:30:45;2.0;2.0;
55686;PMS5003;41911;52.362;4.978;2023-04-24T01:31:16;3.0;2.0;
55686;PMS5003;41911;52.362;4.978;2023-04-24T01:31:47;2.0;2.0;
55686;PMS5003;41911;52.362;4.978;2023-04-24T01:32:18;3.0;2.0;
55686;PMS5003;41911;52.362;4.978;2023-04-24T01:32:50;1.0;1.0;
55686;PMS5003;41911;52.362;4.978;2023-04-24T01:33:21;2.0;1.0;
55686;PMS5003;41911;52.362;4.978;2023-04-24T01:33:52;1.0;1.0;
55686;PMS5003;41911;52.362;4.978;2023-04-24T01:34:25;1.0;1.0;
55686;PMS5003;41911;52.362;4.978;2023-04-24T01:34:56;2.0;1.0;
55686;PMS5003;41911;52.362;4.978;2023-04-24T01:35:27;1.0;1.0;
55686;PMS5003;41911;52.362;4.978;2023-04-24T01:35:59;1.0;1.0;
55686;PMS5003;41911;52.362;4.978;2023-04-24T01:36:30;3.0;2.0;
55686;PMS5003;41911;52.362;4.978;2023-04-24T01:37:03;1.0;1.0;
55686;PMS5003;41911;52.362;4.978;2023-04-24T01:37:34;1.0;1.0;
55686;PMS5003;41911;52.362;4.978;2023-04-24T01:38:05;0.0;0.0;
55686;PMS5003;41911;52.362;4.978;2023-04-24T01:38:37;2.0;1.0;
55686;PMS5003;41911;52.362;4.978;2023-04-24T01:39:08;1.0;1.0;
55686;PMS5003;41911;52.362;4.978;2023-04-24T01:39:39;2.0;2.0;
55686;PMS5003;41911;52.362;4.978;2023-04-24T01:40:10;1.0;1.0;
55686;PMS5003;41911;52.362;4.978;2023-04-24T01:40:41;2.0;2.0;
55686;PMS5003;41911;52.362;4.978;2023-04-24T01:41:12;1.0;1.0;
55686;PMS5003;41911;52.362;4.978;2023-04-24T01:41:44;1.0;1.0;
55686;PMS5003;41911;52.362;4.978;2023-04-24T01:42:16;1.0;1.0;
55686;PMS5003;41911;52.362;4.978;2023-04-24T01:42:47;0.0;0.0;
55686;PMS5003;41911;52.362;4.978;2023-04-24T01:43:18;1.0;1.0;
55686;PMS5003;41911;52.362;4.978;2023-04-24T01:43:49;0.0;0.0;
55686;PMS5003;41911;52.362;4.978;2023-04-24T01:44:21;0.0;0.0;
55686;PMS5003;41911;52.362;4.978;2023-04-24T01:44:52;0.0;0.0;
55686;PMS5003;41911;52.362;4.978;2023-04-24T01:45:24;0.0;0.0;
55686;PMS5003;41911;52.362;4.978;2023-04-24T01:45:55;0.0;0.0;
55686;PMS5003;41911;52.362;4.978;2023-04-24T01:46:26;0.0;0.0;
55686;PMS5003;41911;52.362;4.978;2023-04-24T01:46:57;1.0;1.0;
55686;PMS5003;41911;52.362;4.978;2023-04-24T01:47:30;0.0;0.0;
55686;PMS5003;41911;52.362;4.978;2023-04-24T01:48:01;1.0;0.0;
55686;PMS5003;41911;52.362;4.978;2023-04-24T01:48:33;1.0;0.0;
55686;PMS5003;41911;52.362;4.978;2023-04-24T01:49:04;1.0;1.0;
55686;PMS5003;41911;52.362;4.978;2023-04-24T01:49:35;1.0;1.0;
55686;PMS5003;41911;52.362;4.978;2023-04-24T01:50:09;2.0;1.0;
55686;PMS5003;41911;52.362;4.978;2023-04-24T01:50:40;1.0;1.0;
55686;PMS5003;41911;52.362;4.978;2023-04-24T01:51:11;1.0;0.0;
55686;PMS5003;41911;52.362;4.978;2023-04-24T01:51:42;1.0;1.0;
55686;PMS5003;41911;52.362;4.978;2023-04-24T01:52:13;1.0;0.0;
55686;PMS5003;41911;52.362;4.978;2023-04-24T01:52:44;0.0;0.0;
55686;PMS5003;41911;52.362;4.978;2023-04-24T01:53:15;0.0;0.0;
55686;PMS5003;41911;52.362;4.978;2023-04-24T01:53:46;1.0;0.0;
55686;PMS5003;41911;52.362;4.978;2023-04-24T01:54:18;0.0;0.0;
55686;PMS5003;41911;52.362;4.978;2023-04-24T01:54:49;0.0;0.0;
55686;PMS5003;41911;52.362;4.978;2023-04-24T01:55:21;0.0;0.0;
55686;PMS5003;41911;52.362;4.978;2023-04-24T01:55:52;1.0;1.0;
55686;PMS5003;41911;52.362;4.978;2023-04-24T01:56:23;1.0;1.0;
55686;PMS5003;41911;52.362;4.978;2023-04-24T01:56:55;1.0;1.0;
55686;PMS5003;41911;52.362;4.978;2023-04-24T01:57:26;0.0;0.0;
55686;PMS5003;41911;52.362;4.978;2023-04-24T01:57:58;0.0;0.0;
55686;PMS5003;41911;52.362;4.978;2023-04-24T01:58:31;0.0;0.0;
55686;PMS5003;41911;52.362;4.978;2023-04-24T01:59:03;0.0;0.0;
55686;PMS5003;41911;52.362;4.978;2023-04-24T01:59:34;0.0;0.0;
55686;PMS5003;41911;52.362;4.978;2023-04-24T02:00:05;0.0;0.0;
55686;PMS5003;41911;52.362;4.978;2023-04-24T02:00:37;0.0;0.0;
55686;PMS5003;41911;52.362;4.978;2023-04-24T02:01:08;0.0;0.0;
55686;PMS5003;41911;52.362;4.978;2023-04-24T02:01:39;0.0;0.0;
55686;PMS5003;41911;52.362;4.978;2023-04-24T02:02:10;1.0;0.0;
55686;PMS5003;41911;52.362;4.978;2023-04-24T02:02:41;0.0;0.0;
55686;PMS5003;41911;52.362;4.978;2023-04-24T02:03:12;0.0;0.0;
55686;PMS5003;41911;52.362;4.978;2023-04-24T02:03:43;0.0;0.0;
55686;PMS5003;41911;52.362;4.978;2023-04-24T02:04:14;0.0;0.0;
55686;PMS5003;41911;52.362;4.978;2023-04-24T02:04:46;0.0;0.0;
55686;PMS5003;41911;52.362;4.978;2023-04-24T02:05:17;0.0;0.0;
55686;PMS5003;41911;52.362;4.978;2023-04-24T02:05:48;0.0;0.0;
55686;PMS5003;41911;52.362;4.978;2023-04-24T02:06:19;0.0;0.0;
55686;PMS5003;41911;52.362;4.978;2023-04-24T02:06:50;0.0;0.0;
55686;PMS5003;41911;52.362;4.978;2023-04-24T02:07:21;0.0;0.0;
55686;PMS5003;41911;52.362;4.978;2023-04-24T02:07:53;0.0;0.0;
55686;PMS5003;41911;52.362;4.978;2023-04-24T02:08:24;1.0;1.0;
55686;PMS5003;41911;52.362;4.978;2023-04-24T02:08:55;0.0;0.0;
55686;PMS5003;41911;52.362;4.978;2023-04-24T02:09:27;0.0;0.0;
55686;PMS5003;41911;52.362;4.978;2023-04-24T02:09:58;0.0;0.0;
55686;PMS5003;41911;52.362;4.978;2023-04-24T02:10:29;0.0;0.0;
55686;PMS5003;41911;52.362;4.978;2023-04-24T02:11:00;0.0;0.0;
55686;PMS5003;41911;52.362;4.978;2023-04-24T02:11:31;0.0;0.0;
55686;PMS5003;41911;52.362;4.978;2023-04-24T02:12:02;0.0;0.0;
55686;PMS5003;41911;52.362;4.978;2023-04-24T02:12:33;1.0;0.0;
55686;PMS5003;41911;52.362;4.978;2023-04-24T02:13:04;0.0;0.0;
55686;PMS5003;41911;52.362;4.978;2023-04-24T02:13:35;0.0;0.0;
55686;PMS5003;41911;52.362;4.978;2023-04-24T02:14:06;0.0;0.0;
55686;PMS5003;41911;52.362;4.978;2023-04-24T02:14:37;0.0;0.0;
55686;PMS5003;41911;52.362;4.978;2023-04-24T02:15:08;0.0;0.0;
55686;PMS5003;41911;52.362;4.978;2023-04-24T02:15:40;0.0;0.0;
55686;PMS5003;41911;52.362;4.978;2023-04-24T02:16:11;0.0;0.0;
55686;PMS5003;41911;52.362;4.978;2023-04-24T02:16:42;0.0;0.0;
55686;PMS5003;41911;52.362;4.978;2023-04-24T02:17:13;0.0;0.0;
55686;PMS5003;41911;52.362;4.978;2023-04-24T02:17:44;0.0;0.0;
55686;PMS5003;41911;52.362;4.978;2023-04-24T02:18:16;1.0;0.0;
55686;PMS5003;41911;52.362;4.978;2023-04-24T02:18:48;0.0;0.0;
55686;PMS5003;41911;52.362;4.978;2023-04-24T02:19:19;0.0;0.0;
55686;PMS5003;41911;52.362;4.978;2023-04-24T02:19:49;0.0;0.0;
55686;PMS5003;41911;52.362;4.978;2023-04-24T02:20:21;0.0;0.0;
55686;PMS5003;41911;52.362;4.978;2023-04-24T02:20:52;0.0;0.0;
55686;PMS5003;41911;52.362;4.978;2023-04-24T02:21:23;0.0;0.0;
55686;PMS5003;41911;52.362;4.978;2023-04-24T02:21:54;1.0;1.0;
55686;PMS5003;41911;52.362;4.978;2023-04-24T02:22:25;0.0;0.0;
55686;PMS5003;41911;52.362;4.978;2023-04-24T02:22:56;1.0;1.0;
55686;PMS5003;41911;52.362;4.978;2023-04-24T02:23:29;0.0;0.0;
55686;PMS5003;41911;52.362;4.978;2023-04-24T02:24:00;0.0;0.0;
55686;PMS5003;41911;52.362;4.978;2023-04-24T02:24:32;1.0;1.0;
55686;PMS5003;41911;52.362;4.978;2023-04-24T02:25:04;0.0;0.0;
55686;PMS5003;41911;52.362;4.978;2023-04-24T02:25:35;1.0;0.0;
55686;PMS5003;41911;52.362;4.978;2023-04-24T02:26:06;0.0;0.0;
55686;PMS5003;41911;52.362;4.978;2023-04-24T02:26:37;0.0;0.0;
55686;PMS5003;41911;52.362;4.978;2023-04-24T02:27:08;0.0;0.0;
55686;PMS5003;41911;52.362;4.978;2023-04-24T02:27:39;0.0;0.0;
55686;PMS5003;41911;52.362;4.978;2023-04-24T02:28:10;0.0;0.0;
55686;PMS5003;41911;52.362;4.978;2023-04-24T02:28:43;0.0;0.0;
55686;PMS5003;41911;52.362;4.978;2023-04-24T02:29:14;0.0;0.0;
55686;PMS5003;41911;52.362;4.978;2023-04-24T02:29:45;0.0;0.0;
55686;PMS5003;41911;52.362;4.978;2023-04-24T02:30:17;1.0;1.0;
55686;PMS5003;41911;52.362;4.978;2023-04-24T02:30:48;2.0;1.0;
55686;PMS5003;41911;52.362;4.978;2023-04-24T02:31:19;0.0;0.0;
55686;PMS5003;41911;52.362;4.978;2023-04-24T02:31:50;0.0;0.0;
55686;PMS5003;41911;52.362;4.978;2023-04-24T02:32:21;0.0;0.0;
55686;PMS5003;41911;52.362;4.978;2023-04-24T02:32:52;0.0;0.0;
55686;PMS5003;41911;52.362;4.978;2023-04-24T02:33:23;0.0;0.0;
55686;PMS5003;41911;52.362;4.978;2023-04-24T02:33:54;0.0;0.0;
55686;PMS5003;41911;52.362;4.978;2023-04-24T02:34:25;1.0;0.0;
55686;PMS5003;41911;52.362;4.978;2023-04-24T02:34:56;0.0;0.0;
55686;PMS5003;41911;52.362;4.978;2023-04-24T02:35:27;0.0;0.0;
55686;PMS5003;41911;52.362;4.978;2023-04-24T02:35:58;0.0;0.0;
55686;PMS5003;41911;52.362;4.978;2023-04-24T02:36:29;0.0;0.0;
55686;PMS5003;41911;52.362;4.978;2023-04-24T02:37:00;0.0;0.0;
55686;PMS5003;41911;52.362;4.978;2023-04-24T02:37:31;1.0;1.0;
55686;PMS5003;41911;52.362;4.978;2023-04-24T02:38:01;0.0;0.0;
55686;PMS5003;41911;52.362;4.978;2023-04-24T02:38:32;0.0;0.0;
55686;PMS5003;41911;52.362;4.978;2023-04-24T02:39:03;0.0;0.0;
55686;PMS5003;41911;52.362;4.978;2023-04-24T02:39:34;0.0;0.0;
55686;PMS5003;41911;52.362;4.978;2023-04-24T02:40:06;0.0;0.0;
55686;PMS5003;41911;52.362;4.978;2023-04-24T02:40:38;0.0;0.0;
55686;PMS5003;41911;52.362;4.978;2023-04-24T02:41:09;0.0;0.0;
55686;PMS5003;41911;52.362;4.978;2023-04-24T02:41:40;0.0;0.0;
55686;PMS5003;41911;52.362;4.978;2023-04-24T02:42:11;1.0;1.0;
55686;PMS5003;41911;52.362;4.978;2023-04-24T02:42:42;0.0;0.0;
55686;PMS5003;41911;52.362;4.978;2023-04-24T02:43:13;1.0;0.0;
55686;PMS5003;41911;52.362;4.978;2023-04-24T02:43:43;0.0;0.0;
55686;PMS5003;41911;52.362;4.978;2023-04-24T02:44:14;0.0;0.0;
55686;PMS5003;41911;52.362;4.978;2023-04-24T02:44:45;0.0;0.0;
55686;PMS5003;41911;52.362;4.978;2023-04-24T02:45:16;0.0;0.0;
55686;PMS5003;41911;52.362;4.978;2023-04-24T02:45:47;0.0;0.0;
55686;PMS5003;41911;52.362;4.978;2023-04-24T02:46:18;0.0;0.0;
55686;PMS5003;41911;52.362;4.978;2023-04-24T02:46:49;0.0;0.0;
55686;PMS5003;41911;52.362;4.978;2023-04-24T02:47:21;0.0;0.0;
55686;PMS5003;41911;52.362;4.978;2023-04-24T02:47:52;0.0;0.0;
55686;PMS5003;41911;52.362;4.978;2023-04-24T02:48:23;1.0;1.0;
55686;PMS5003;41911;52.362;4.978;2023-04-24T02:48:54;1.0;1.0;
55686;PMS5003;41911;52.362;4.978;2023-04-24T02:49:25;0.0;0.0;
55686;PMS5003;41911;52.362;4.978;2023-04-24T02:49:56;0.0;0.0;
55686;PMS5003;41911;52.362;4.978;2023-04-24T02:50:28;0.0;0.0;
55686;PMS5003;41911;52.362;4.978;2023-04-24T02:50:59;1.0;0.0;
55686;PMS5003;41911;52.362;4.978;2023-04-24T02:51:30;0.0;0.0;
55686;PMS5003;41911;52.362;4.978;2023-04-24T02:52:01;0.0;0.0;
55686;PMS5003;41911;52.362;4.978;2023-04-24T02:52:32;0.0;0.0;
55686;PMS5003;41911;52.362;4.978;2023-04-24T02:53:03;0.0;0.0;
55686;PMS5003;41911;52.362;4.978;2023-04-24T02:53:34;0.0;0.0;
55686;PMS5003;41911;52.362;4.978;2023-04-24T02:54:05;0.0;0.0;
55686;PMS5003;41911;52.362;4.978;2023-04-24T02:54:36;0.0;0.0;
55686;PMS5003;41911;52.362;4.978;2023-04-24T02:55:07;0.0;0.0;
55686;PMS5003;41911;52.362;4.978;2023-04-24T02:55:38;0.0;0.0;
55686;PMS5003;41911;52.362;4.978;2023-04-24T02:56:09;0.0;0.0;
55686;PMS5003;41911;52.362;4.978;2023-04-24T02:56:40;0.0;0.0;
55686;PMS5003;41911;52.362;4.978;2023-04-24T02:57:11;0.0;0.0;
55686;PMS5003;41911;52.362;4.978;2023-04-24T02:57:42;0.0;0.0;
55686;PMS5003;41911;52.362;4.978;2023-04-24T02:58:13;0.0;0.0;
55686;PMS5003;41911;52.362;4.978;2023-04-24T02:58:44;0.0;0.0;
55686;PMS5003;41911;52.362;4.978;2023-04-24T02:59:15;0.0;0.0;
55686;PMS5003;41911;52.362;4.978;2023-04-24T02:59:46;0.0;0.0;
55686;PMS5003;41911;52.362;4.978;2023-04-24T03:00:17;0.0;0.0;
55686;PMS5003;41911;52.362;4.978;2023-04-24T03:00:48;0.0;0.0;
55686;PMS5003;41911;52.362;4.978;2023-04-24T03:01:23;0.0;0.0;
55686;PMS5003;41911;52.362;4.978;2023-04-24T03:01:54;0.0;0.0;
55686;PMS5003;41911;52.362;4.978;2023-04-24T03:02:25;0.0;0.0;
55686;PMS5003;41911;52.362;4.978;2023-04-24T03:02:56;0.0;0.0;
55686;PMS5003;41911;52.362;4.978;2023-04-24T03:03:27;0.0;0.0;
55686;PMS5003;41911;52.362;4.978;2023-04-24T03:03:58;0.0;0.0;
55686;PMS5003;41911;52.362;4.978;2023-04-24T03:04:29;0.0;0.0;
55686;PMS5003;41911;52.362;4.978;2023-04-24T03:05:00;0.0;0.0;
55686;PMS5003;41911;52.362;4.978;2023-04-24T03:05:31;0.0;0.0;
55686;PMS5003;41911;52.362;4.978;2023-04-24T03:06:02;0.0;0.0;
55686;PMS5003;41911;52.362;4.978;2023-04-24T03:06:33;0.0;0.0;
55686;PMS5003;41911;52.362;4.978;2023-04-24T03:07:04;0.0;0.0;
55686;PMS5003;41911;52.362;4.978;2023-04-24T03:07:35;0.0;0.0;
55686;PMS5003;41911;52.362;4.978;2023-04-24T03:08:07;0.0;0.0;
55686;PMS5003;41911;52.362;4.978;2023-04-24T03:08:38;0.0;0.0;
55686;PMS5003;41911;52.362;4.978;2023-04-24T03:09:09;0.0;0.0;
55686;PMS5003;41911;52.362;4.978;2023-04-24T03:09:40;0.0;0.0;
55686;PMS5003;41911;52.362;4.978;2023-04-24T03:10:11;0.0;0.0;
55686;PMS5003;41911;52.362;4.978;2023-04-24T03:10:42;0.0;0.0;
55686;PMS5003;41911;52.362;4.978;2023-04-24T03:11:13;1.0;0.0;
55686;PMS5003;41911;52.362;4.978;2023-04-24T03:11:44;0.0;0.0;
55686;PMS5003;41911;52.362;4.978;2023-04-24T03:12:15;0.0;0.0;
55686;PMS5003;41911;52.362;4.978;2023-04-24T03:12:46;0.0;0.0;
55686;PMS5003;41911;52.362;4.978;2023-04-24T03:13:17;1.0;0.0;
55686;PMS5003;41911;52.362;4.978;2023-04-24T03:13:48;0.0;0.0;
55686;PMS5003;41911;52.362;4.978;2023-04-24T03:14:19;0.0;0.0;
55686;PMS5003;41911;52.362;4.978;2023-04-24T03:14:50;0.0;0.0;
55686;PMS5003;41911;52.362;4.978;2023-04-24T03:15:21;0.0;0.0;
55686;PMS5003;41911;52.362;4.978;2023-04-24T03:15:52;0.0;0.0;
55686;PMS5003;41911;52.362;4.978;2023-04-24T03:16:23;0.0;0.0;
55686;PMS5003;41911;52.362;4.978;2023-04-24T03:16:54;2.0;2.0;
55686;PMS5003;41911;52.362;4.978;2023-04-24T03:17:25;0.0;0.0;
55686;PMS5003;41911;52.362;4.978;2023-04-24T03:17:56;0.0;0.0;
55686;PMS5003;41911;52.362;4.978;2023-04-24T03:18:27;0.0;0.0;
55686;PMS5003;41911;52.362;4.978;2023-04-24T03:18:58;0.0;0.0;
55686;PMS5003;41911;52.362;4.978;2023-04-24T03:19:30;0.0;0.0;
55686;PMS5003;41911;52.362;4.978;2023-04-24T03:20:01;0.0;0.0;
55686;PMS5003;41911;52.362;4.978;2023-04-24T03:20:32;0.0;0.0;